sensor_id;sensor_type;location;lat;lon;timestamp;pressure;altitude;pressure_sealevel;temperature;humidity
58975;BME280;44751;52.236;5.178;2023-01-25T02:54:30;103550.81;;;-0.01;100.00
58975;BME280;44751;52.236;5.178;2023-01-25T02:56:58;103550.06;;;-0.05;100.00
58975;BME280;44751;52.236;5.178;2023-01-25T02:59:24;103535.47;;;0.10;100.00
58975;BME280;44751;52.236;5.178;2023-01-25T03:01:50;103542.81;;;0.01;100.00
58975;BME280;44751;52.236;5.178;2023-01-25T03:04:17;103538.44;;;-0.01;100.00
58975;BME280;44751;52.236;5.178;2023-01-25T03:06:43;103529.59;;;-0.01;100.00
58975;BME280;44751;52.236;5.178;2023-01-25T03:09:14;103532.31;;;-0.04;100.00
58975;BME280;44751;52.236;5.178;2023-01-25T03:11:40;103526.16;;;-0.05;100.00
58975;BME280;44751;52.236;5.178;2023-01-25T03:14:07;103527.19;;;-0.10;100.00
58975;BME280;44751;52.236;5.178;2023-01-25T03:16:34;103530.78;;;-0.11;100.00
58975;BME280;44751;52.236;5.178;2023-01-25T03:19:03;103531.50;;;-0.06;100.00
58975;BME280;44751;52.236;5.178;2023-01-25T03:21:31;103533.47;;;-0.13;100.00
58975;BME280;44751;52.236;5.178;2023-01-25T03:24:00;103533.16;;;-0.02;100.00
58975;BME280;44751;52.236;5.178;2023-01-25T03:26:27;103526.81;;;0.04;100.00
58975;BME280;44751;52.236;5.178;2023-01-25T03:28:54;103519.91;;;-0.02;100.00
58975;BME280;44751;52.236;5.178;2023-01-25T03:31:21;103523.97;;;0.10;100.00
58975;BME280;44751;52.236;5.178;2023-01-25T03:33:49;103512.66;;;0.03;100.00
58975;BME280;44751;52.236;5.178;2023-01-25T03:36:15;103504.69;;;0.03;100.00
58975;BME280;44751;52.236;5.178;2023-01-25T03:38:42;103510.97;;;0.01;100.00
58975;BME280;44751;52.236;5.178;2023-01-25T03:41:08;103503.84;;;0.03;100.00
58975;BME280;44751;52.236;5.178;2023-01-25T03:43:36;103499.38;;;0.03;100.00
58975;BME280;44751;52.236;5.178;2023-01-25T03:46:07;103499.50;;;0.00;100.00
58975;BME280;44751;52.236;5.178;2023-01-25T03:48:33;103501.72;;;0.14;100.00
58975;BME280;44751;52.236;5.178;2023-01-25T03:51:00;103490.25;;;-0.18;100.00
58975;BME280;44751;52.236;5.178;2023-01-25T03:53:28;103494.81;;;-0.23;100.00
58975;BME280;44751;52.236;5.178;2023-01-25T03:56:09;103497.91;;;-0.41;100.00
58975;BME280;44751;52.236;5.178;2023-01-25T03:58:37;103487.47;;;-0.80;100.00
58975;BME280;44751;52.236;5.178;2023-01-25T04:01:06;103501.25;;;-0.67;100.00
58975;BME280;44751;52.236;5.178;2023-01-25T04:03:37;103503.00;;;-0.64;100.00
58975;BME280;44751;52.236;5.178;2023-01-25T04:06:04;103494.06;;;-0.62;100.00
58975;BME280;44751;52.236;5.178;2023-01-25T04:08:31;103493.69;;;-0.46;100.00
58975;BME280;44751;52.236;5.178;2023-01-25T04:11:05;103492.50;;;-0.36;100.00
58975;BME280;44751;52.236;5.178;2023-01-25T04:13:33;103495.44;;;-0.47;100.00
58975;BME280;44751;52.236;5.178;2023-01-25T04:16:08;103502.22;;;-0.36;100.00
58975;BME280;44751;52.236;5.178;2023-01-25T04:18:36;103484.72;;;-0.42;100.00
58975;BME280;44751;52.236;5.178;2023-01-25T04:21:02;103488.97;;;-0.36;100.00
58975;BME280;44751;52.236;5.178;2023-01-25T04:23:29;103479.34;;;-0.41;100.00
58975;BME280;44751;52.236;5.178;2023-01-25T04:26:00;103483.78;;;-0.40;100.00
58975;BME280;44751;52.236;5.178;2023-01-25T04:28:27;103479.69;;;-0.53;100.00
58975;BME280;44751;52.236;5.178;2023-01-25T04:30:55;103480.72;;;-0.59;100.00
58975;BME280;44751;52.236;5.178;2023-01-25T04:33:22;103474.16;;;-0.44;100.00
58975;BME280;44751;52.236;5.178;2023-01-25T04:35:51;103476.97;;;-0.50;100.00
58975;BME280;44751;52.236;5.178;2023-01-25T04:38:18;103466.47;;;-0.55;100.00
58975;BME280;44751;52.236;5.178;2023-01-25T04:40:45;103466.47;;;-0.55;100.00
58975;BME280;44751;52.236;5.178;2023-01-25T04:43:13;103462.16;;;-0.59;100.00
58975;BME280;44751;52.236;5.178;2023-01-25T04:45:39;103463.25;;;-0.66;100.00
58975;BME280;44751;52.236;5.178;2023-01-25T04:48:08;103462.97;;;-0.55;100.00
58975;BME280;44751;52.236;5.178;2023-01-25T04:50:38;103463.81;;;-0.55;100.00
58975;BME280;44751;52.236;5.178;2023-01-25T04:53:06;103452.31;;;-0.54;100.00
58975;BME280;44751;52.236;5.178;2023-01-25T04:55:33;103452.28;;;-0.52;100.00
58975;BME280;44751;52.236;5.178;2023-01-25T04:58:00;103455.63;;;-0.45;100.00
58975;BME280;44751;52.236;5.178;2023-01-25T05:00:27;103447.91;;;-0.55;100.00
58975;BME280;44751;52.236;5.178;2023-01-25T05:02:54;103441.53;;;-0.47;100.00
58975;BME280;44751;52.236;5.178;2023-01-25T05:05:21;103439.78;;;-0.48;100.00
58975;BME280;44751;52.236;5.178;2023-01-25T05:07:48;103446.53;;;-0.36;100.00
58975;BME280;44751;52.236;5.178;2023-01-25T05:10:14;103448.28;;;-0.35;100.00
58975;BME280;44751;52.236;5.178;2023-01-25T05:12:43;103443.03;;;-0.37;100.00
58975;BME280;44751;52.236;5.178;2023-01-25T05:15:12;103445.22;;;-0.53;100.00
58975;BME280;44751;52.236;5.178;2023-01-25T05:17:39;103446.34;;;-0.62;100.00
58975;BME280;44751;52.236;5.178;2023-01-25T05:20:06;103440.50;;;-0.75;100.00
58975;BME280;44751;52.236;5.178;2023-01-25T05:22:33;103439.47;;;-0.69;100.00
58975;BME280;44751;52.236;5.178;2023-01-25T05:24:59;103439.16;;;-0.58;100.00
58975;BME280;44751;52.236;5.178;2023-01-25T05:27:30;103443.47;;;-0.54;100.00
58975;BME280;44751;52.236;5.178;2023-01-25T05:29:56;103440.88;;;-0.56;100.00
58975;BME280;44751;52.236;5.178;2023-01-25T05:32:23;103441.13;;;-0.65;100.00
58975;BME280;44751;52.236;5.178;2023-01-25T05:34:50;103447.16;;;-0.60;100.00
58975;BME280;44751;52.236;5.178;2023-01-25T05:37:18;103440.56;;;-0.45;100.00
58975;BME280;44751;52.236;5.178;2023-01-25T05:39:45;103446.13;;;-0.54;100.00
58975;BME280;44751;52.236;5.178;2023-01-25T05:42:16;103455.03;;;-0.57;100.00
58975;BME280;44751;52.236;5.178;2023-01-25T05:44:44;103443.50;;;-0.56;100.00
58975;BME280;44751;52.236;5.178;2023-01-25T05:47:16;103449.13;;;-0.35;100.00
58975;BME280;44751;52.236;5.178;2023-01-25T05:49:47;103439.44;;;-0.36;100.00
58975;BME280;44751;52.236;5.178;2023-01-25T05:52:15;103438.38;;;-0.29;100.00
58975;BME280;44751;52.236;5.178;2023-01-25T05:54:41;103441.19;;;-0.35;100.00
58975;BME280;44751;52.236;5.178;2023-01-25T05:57:08;103438.63;;;-0.38;100.00
58975;BME280;44751;52.236;5.178;2023-01-25T05:59:37;103444.22;;;-0.16;100.00
58975;BME280;44751;52.236;5.178;2023-01-25T06:02:08;103443.78;;;-0.33;100.00
58975;BME280;44751;52.236;5.178;2023-01-25T06:04:35;103438.53;;;-0.35;100.00
58975;BME280;44751;52.236;5.178;2023-01-25T06:07:01;103443.41;;;-0.51;100.00
58975;BME280;44751;52.236;5.178;2023-01-25T06:09:28;103433.94;;;-0.61;100.00
58975;BME280;44751;52.236;5.178;2023-01-25T06:11:58;103439.72;;;-0.45;100.00
58975;BME280;44751;52.236;5.178;2023-01-25T06:14:24;103446.34;;;-0.62;100.00
58975;BME280;44751;52.236;5.178;2023-01-25T06:16:51;103443.66;;;-0.60;100.00
58975;BME280;44751;52.236;5.178;2023-01-25T06:19:17;103449.47;;;-0.81;100.00
58975;BME280;44751;52.236;5.178;2023-01-25T07:36:25;103414.88;;;-0.74;100.00
58975;BME280;44751;52.236;5.178;2023-01-25T07:38:57;103409.59;;;-0.76;100.00
58975;BME280;44751;52.236;5.178;2023-01-25T07:41:24;103422.72;;;-0.71;100.00
58975;BME280;44751;52.236;5.178;2023-01-25T07:44:05;103413.97;;;-0.75;100.00
58975;BME280;44751;52.236;5.178;2023-01-25T07:46:43;103417.00;;;-0.89;100.00
58975;BME280;44751;52.236;5.178;2023-01-25T07:49:10;103416.41;;;-1.00;100.00
58975;BME280;44751;52.236;5.178;2023-01-25T07:51:40;103415.47;;;-0.99;100.00
58975;BME280;44751;52.236;5.178;2023-01-25T07:54:09;103407.22;;;-0.87;100.00
58975;BME280;44751;52.236;5.178;2023-01-25T07:56:36;103392.25;;;-1.24;100.00
58975;BME280;44751;52.236;5.178;2023-01-25T07:59:05;103393.53;;;-1.05;100.00
58975;BME280;44751;52.236;5.178;2023-01-25T08:01:39;103385.41;;;-0.97;100.00
58975;BME280;44751;52.236;5.178;2023-01-25T08:04:05;103392.28;;;-0.91;100.00
58975;BME280;44751;52.236;5.178;2023-01-25T08:06:35;103389.47;;;-0.83;100.00
58975;BME280;44751;52.236;5.178;2023-01-25T08:09:14;103386.78;;;-0.82;100.00
58975;BME280;44751;52.236;5.178;2023-01-25T08:11:46;103388.44;;;-0.77;100.00
58975;BME280;44751;52.236;5.178;2023-01-25T08:14:16;103383.13;;;-1.11;100.00
58975;BME280;44751;52.236;5.178;2023-01-25T08:16:46;103395.91;;;-0.94;100.00
58975;BME280;44751;52.236;5.178;2023-01-25T08:19:12;103399.19;;;-0.84;100.00
58975;BME280;44751;52.236;5.178;2023-01-25T08:21:40;103401.50;;;-1.05;100.00
58975;BME280;44751;52.236;5.178;2023-01-25T08:24:07;103406.16;;;-1.14;100.00
58975;BME280;44751;52.236;5.178;2023-01-25T08:26:34;103401.50;;;-1.05;100.00
58975;BME280;44751;52.236;5.178;2023-01-25T08:29:04;103404.22;;;-1.08;100.00
58975;BME280;44751;52.236;5.178;2023-01-25T08:31:33;103405.69;;;-0.96;100.00
58975;BME280;44751;52.236;5.178;2023-01-25T08:37:30;103398.19;;;-0.80;100.00
58975;BME280;44751;52.236;5.178;2023-01-25T08:40:06;103388.66;;;-0.87;100.00
58975;BME280;44751;52.236;5.178;2023-01-25T08:42:48;103390.44;;;-0.87;100.00
58975;BME280;44751;52.236;5.178;2023-01-25T09:14:02;103365.41;;;-1.10;100.00
58975;BME280;44751;52.236;5.178;2023-01-25T09:16:39;103359.34;;;-1.14;100.00
58975;BME280;44751;52.236;5.178;2023-01-25T09:19:05;103365.13;;;-0.99;100.00
58975;BME280;44751;52.236;5.178;2023-01-25T09:21:33;103361.03;;;-0.78;100.00
58975;BME280;44751;52.236;5.178;2023-01-25T09:24:01;103358.66;;;-0.87;100.00
58975;BME280;44751;52.236;5.178;2023-01-25T09:26:34;103356.25;;;-0.97;100.00
58975;BME280;44751;52.236;5.178;2023-01-25T09:29:01;103355.00;;;-0.83;100.00
58975;BME280;44751;52.236;5.178;2023-01-25T09:31:28;103356.69;;;-0.81;100.00
58975;BME280;44751;52.236;5.178;2023-01-25T09:33:55;103356.03;;;-0.89;100.00
58975;BME280;44751;52.236;5.178;2023-01-25T09:36:22;103352.00;;;-0.71;100.00
58975;BME280;44751;52.236;5.178;2023-01-25T09:38:56;103351.28;;;-0.76;100.00
58975;BME280;44751;52.236;5.178;2023-01-25T09:55:14;103340.53;;;-1.05;100.00
58975;BME280;44751;52.236;5.178;2023-01-25T09:57:44;103338.16;;;-1.14;100.00
58975;BME280;44751;52.236;5.178;2023-01-25T10:00:35;103336.78;;;-0.96;100.00
58975;BME280;44751;52.236;5.178;2023-01-25T10:03:41;103319.78;;;-1.22;100.00
58975;BME280;44751;52.236;5.178;2023-01-25T10:06:12;103313.97;;;-1.01;100.00
58975;BME280;44751;52.236;5.178;2023-01-25T10:08:52;103305.50;;;-1.16;100.00
58975;BME280;44751;52.236;5.178;2023-01-25T10:11:32;103309.03;;;-0.82;100.00
58975;BME280;44751;52.236;5.178;2023-01-25T10:14:16;103314.94;;;-0.72;100.00
58975;BME280;44751;52.236;5.178;2023-01-25T10:19:51;103300.84;;;-1.06;100.00
58975;BME280;44751;52.236;5.178;2023-01-25T10:22:16;103295.38;;;-1.00;100.00
58975;BME280;44751;52.236;5.178;2023-01-25T10:28:22;103293.78;;;-1.06;100.00
58975;BME280;44751;52.236;5.178;2023-01-25T10:31:03;103293.78;;;-1.06;100.00
58975;BME280;44751;52.236;5.178;2023-01-25T10:33:38;103290.25;;;-1.06;100.00
58975;BME280;44751;52.236;5.178;2023-01-25T10:36:32;103295.47;;;-1.03;100.00
58975;BME280;44751;52.236;5.178;2023-01-25T10:42:59;103284.34;;;-0.84;100.00
58975;BME280;44751;52.236;5.178;2023-01-25T11:11:58;103211.69;;;-0.77;100.00
58975;BME280;44751;52.236;5.178;2023-01-25T11:14:26;103209.91;;;-0.76;100.00
58975;BME280;44751;52.236;5.178;2023-01-25T11:16:52;103223.50;;;-0.59;100.00
58975;BME280;44751;52.236;5.178;2023-01-25T11:19:30;103221.56;;;-0.52;100.00
58975;BME280;44751;52.236;5.178;2023-01-25T11:22:19;103210.16;;;-0.56;100.00
58975;BME280;44751;52.236;5.178;2023-01-25T11:24:55;103200.56;;;-0.60;100.00
58975;BME280;44751;52.236;5.178;2023-01-25T11:27:24;103207.22;;;-0.75;100.00
58975;BME280;44751;52.236;5.178;2023-01-25T11:32:37;103181.25;;;-0.94;100.00
58975;BME280;44751;52.236;5.178;2023-01-25T11:35:11;103184.41;;;-0.81;100.00
58975;BME280;44751;52.236;5.178;2023-01-25T11:50:46;103126.59;;;-0.98;100.00
58975;BME280;44751;52.236;5.178;2023-01-25T11:57:48;103107.63;;;-0.84;100.00
58975;BME280;44751;52.236;5.178;2023-01-25T12:03:14;103103.50;;;-1.23;100.00
58975;BME280;44751;52.236;5.178;2023-01-25T12:06:08;103089.81;;;-1.07;100.00
58975;BME280;44751;52.236;5.178;2023-01-25T13:40:41;102934.59;;;-1.14;100.00
58975;BME280;44751;52.236;5.178;2023-01-25T13:43:20;102923.53;;;-1.00;100.00
58975;BME280;44751;52.236;5.178;2023-01-25T15:37:12;102848.78;;;-1.36;100.00
58975;BME280;44751;52.236;5.178;2023-01-25T15:39:38;102850.63;;;-1.38;100.00
58975;BME280;44751;52.236;5.178;2023-01-25T15:42:05;102855.13;;;-1.14;100.00
58975;BME280;44751;52.236;5.178;2023-01-25T15:44:31;102859.25;;;-1.06;100.00
58975;BME280;44751;52.236;5.178;2023-01-25T15:46:58;102846.69;;;-1.26;100.00
58975;BME280;44751;52.236;5.178;2023-01-25T15:49:26;102849.50;;;-1.05;100.00
58975;BME280;44751;52.236;5.178;2023-01-25T15:51:54;102849.31;;;-0.99;100.00
58975;BME280;44751;52.236;5.178;2023-01-25T15:54:30;102854.88;;;-1.07;100.00
58975;BME280;44751;52.236;5.178;2023-01-25T15:56:57;102856.28;;;-0.96;100.00
58975;BME280;44751;52.236;5.178;2023-01-25T15:59:24;102857.34;;;-1.02;100.00
58975;BME280;44751;52.236;5.178;2023-01-25T16:01:51;102856.63;;;-1.06;100.00
58975;BME280;44751;52.236;5.178;2023-01-25T16:04:18;102853.25;;;-1.11;100.00
58975;BME280;44751;52.236;5.178;2023-01-25T16:06:51;102859.41;;;-1.10;100.00
58975;BME280;44751;52.236;5.178;2023-01-25T16:09:21;102853.09;;;-1.06;100.00
58975;BME280;44751;52.236;5.178;2023-01-25T16:11:53;102853.19;;;-1.09;100.00
58975;BME280;44751;52.236;5.178;2023-01-25T16:14:20;102843.31;;;-1.04;100.00
58975;BME280;44751;52.236;5.178;2023-01-25T16:16:49;102853.63;;;-0.96;100.00
58975;BME280;44751;52.236;5.178;2023-01-25T16:19:19;102849.03;;;-0.91;100.00
58975;BME280;44751;52.236;5.178;2023-01-25T16:21:47;102837.28;;;-0.84;100.00
58975;BME280;44751;52.236;5.178;2023-01-25T16:24:14;102841.63;;;-0.81;100.00
58975;BME280;44751;52.236;5.178;2023-01-25T16:26:49;102836.75;;;-0.68;100.00
58975;BME280;44751;52.236;5.178;2023-01-25T16:29:17;102819.50;;;-0.80;100.00
58975;BME280;44751;52.236;5.178;2023-01-25T16:31:44;102823.44;;;-0.67;100.00
58975;BME280;44751;52.236;5.178;2023-01-25T16:34:10;102813.44;;;-0.84;100.00
58975;BME280;44751;52.236;5.178;2023-01-25T16:36:40;102811.50;;;-0.79;100.00
58975;BME280;44751;52.236;5.178;2023-01-25T16:39:14;102800.81;;;-0.77;100.00
58975;BME280;44751;52.236;5.178;2023-01-25T16:41:44;102800.91;;;-0.79;100.00
58975;BME280;44751;52.236;5.178;2023-01-25T18:31:20;102592.81;;;-0.89;100.00
58975;BME280;44751;52.236;5.178;2023-01-25T18:33:55;102602.47;;;-0.88;100.00
58975;BME280;44751;52.236;5.178;2023-01-25T18:36:23;102602.59;;;-0.91;100.00
58975;BME280;44751;52.236;5.178;2023-01-25T18:38:53;102600.81;;;-0.91;100.00
58975;BME280;44751;52.236;5.178;2023-01-25T18:41:21;102591.03;;;-0.88;100.00
58975;BME280;44751;52.236;5.178;2023-01-25T18:44:01;102596.00;;;-0.81;100.00
58975;BME280;44751;52.236;5.178;2023-01-25T18:46:28;102590.66;;;-0.79;100.00
58975;BME280;44751;52.236;5.178;2023-01-25T18:48:55;102568.28;;;-0.94;100.00
58975;BME280;44751;52.236;5.178;2023-01-25T18:51:21;102581.16;;;-0.85;100.00
58975;BME280;44751;52.236;5.178;2023-01-25T18:53:53;102575.91;;;-0.86;100.00
58975;BME280;44751;52.236;5.178;2023-01-25T18:56:20;102567.75;;;-0.80;100.00
58975;BME280;44751;52.236;5.178;2023-01-25T18:58:56;102571.59;;;-0.67;100.00
58975;BME280;44751;52.236;5.178;2023-01-25T19:01:27;102564.72;;;-0.71;100.00
58975;BME280;44751;52.236;5.178;2023-01-25T19:04:03;102564.88;;;-0.75;100.00
58975;BME280;44751;52.236;5.178;2023-01-25T19:06:34;102556.09;;;-0.76;100.00
58975;BME280;44751;52.236;5.178;2023-01-25T19:09:07;102567.28;;;-0.69;100.00
58975;BME280;44751;52.236;5.178;2023-01-25T19:11:36;102561.94;;;-0.68;100.00
58975;BME280;44751;52.236;5.178;2023-01-25T19:14:08;102554.50;;;-0.80;100.00
58975;BME280;44751;52.236;5.178;2023-01-25T19:16:48;102547.88;;;-0.92;100.00
58975;BME280;44751;52.236;5.178;2023-01-25T19:19:18;102561.19;;;-0.71;100.00
58975;BME280;44751;52.236;5.178;2023-01-25T19:21:49;102550.19;;;-0.83;100.00
58975;BME280;44751;52.236;5.178;2023-01-25T19:24:19;102557.25;;;-0.61;100.00
58975;BME280;44751;52.236;5.178;2023-01-25T19:26:48;102557.97;;;-0.57;100.00
58975;BME280;44751;52.236;5.178;2023-01-25T19:29:18;102546.47;;;-0.56;100.00
58975;BME280;44751;52.236;5.178;2023-01-25T19:31:50;102545.09;;;-0.67;100.00
58975;BME280;44751;52.236;5.178;2023-01-25T19:34:24;102542.44;;;-0.67;100.00
58975;BME280;44751;52.236;5.178;2023-01-25T19:36:51;102540.59;;;-0.64;100.00
58975;BME280;44751;52.236;5.178;2023-01-25T19:42:49;102537.03;;;-0.63;100.00
58975;BME280;44751;52.236;5.178;2023-01-25T19:45:23;102525.13;;;-0.75;100.00
58975;BME280;44751;52.236;5.178;2023-01-25T19:47:51;102512.81;;;-0.76;100.00
58975;BME280;44751;52.236;5.178;2023-01-25T19:50:18;102521.31;;;-0.68;100.00
58975;BME280;44751;52.236;5.178;2023-01-25T19:52:47;102513.22;;;-0.65;100.00
58975;BME280;44751;52.236;5.178;2023-01-25T19:55:35;102511.19;;;-0.58;100.00
58975;BME280;44751;52.236;5.178;2023-01-25T20:01:25;102509.97;;;-0.72;100.00
58975;BME280;44751;52.236;5.178;2023-01-25T20:03:53;102509.69;;;-0.66;100.00
58975;BME280;44751;52.236;5.178;2023-01-25T20:06:27;102500.84;;;-0.64;100.00
58975;BME280;44751;52.236;5.178;2023-01-25T20:08:56;102504.81;;;-0.54;100.00
58975;BME280;44751;52.236;5.178;2023-01-25T20:11:25;102515.22;;;-0.70;100.00
58975;BME280;44751;52.236;5.178;2023-01-25T20:13:58;102514.28;;;-0.69;100.00
58975;BME280;44751;52.236;5.178;2023-01-25T20:16:33;102512.03;;;-0.79;100.00
58975;BME280;44751;52.236;5.178;2023-01-25T20:19:00;102506.16;;;-0.64;100.00
58975;BME280;44751;52.236;5.178;2023-01-25T20:21:28;102502.09;;;-0.73;100.00
58975;BME280;44751;52.236;5.178;2023-01-25T20:24:02;102507.00;;;-0.64;100.00
58975;BME280;44751;52.236;5.178;2023-01-25T20:26:33;102507.56;;;-0.78;100.00
58975;BME280;44751;52.236;5.178;2023-01-25T20:29:01;102501.28;;;-0.75;100.00
58975;BME280;44751;52.236;5.178;2023-01-25T20:31:31;102500.75;;;-0.63;100.00
58975;BME280;44751;52.236;5.178;2023-01-25T20:34:22;102493.03;;;-0.68;100.00
58975;BME280;44751;52.236;5.178;2023-01-25T20:36:56;102503.69;;;-0.69;100.00
58975;BME280;44751;52.236;5.178;2023-01-25T20:39:24;102500.56;;;-0.79;100.00
58975;BME280;44751;52.236;5.178;2023-01-25T20:41:51;102502.47;;;-0.83;100.00
58975;BME280;44751;52.236;5.178;2023-01-25T20:44:20;102496.91;;;-0.76;100.00
58975;BME280;44751;52.236;5.178;2023-01-25T20:46:53;102504.34;;;-0.64;100.00
58975;BME280;44751;52.236;5.178;2023-01-25T20:49:19;102508.09;;;-0.70;100.00
58975;BME280;44751;52.236;5.178;2023-01-25T20:51:46;102500.91;;;-0.66;100.00
58975;BME280;44751;52.236;5.178;2023-01-25T20:54:14;102481.41;;;-0.65;100.00
58975;BME280;44751;52.236;5.178;2023-01-25T20:56:42;102484.59;;;-0.57;100.00
58975;BME280;44751;52.236;5.178;2023-01-25T20:59:17;102483.72;;;-0.57;100.00
58975;BME280;44751;52.236;5.178;2023-01-25T21:01:44;102487.19;;;-0.55;100.00
58975;BME280;44751;52.236;5.178;2023-01-25T21:04:19;102477.66;;;-0.59;100.00
